Time,TemperatureF,DewpointF,PressureIn,WindDirection,WindDirectionDegrees,WindSpeedMPH,WindSpeedGustMPH,Humidity,HourlyPrecipIn,Conditions,Clouds,dailyrainin,SolarRadiationWatts/m^2,SoftwareType,DateUTC
2014-02-02 00:00:00,37.9,35.8,30.13,NW,314,0.0,-999.0,92,0.00,,,0.00,0,WeatherHawk,2014-02-02 05:00:00,
2014-02-02 00:05:00,44.0,42.1,30.08,SW,226,0.0,-999.0,93,0.00,,,0.00,0,WeatherHawk,2014-02-02 05:05:00,
2014-02-02 00:10:00,44.1,41.9,30.08,SW,224,0.0,-999.0,92,0.00,,,0.00,0,WeatherHawk,2014-02-02 05:10:00,
2014-02-02 00:15:00,44.4,42.2,30.08,WNW,287,0.0,-999.0,92,0.00,,,0.00,0,WeatherHawk,2014-02-02 05:15:00,
2014-02-02 00:20:00,44.2,42.1,30.08,South,184,0.0,-999.0,92,0.00,,,0.00,0,WeatherHawk,2014-02-02 05:20:00,
2014-02-02 00:25:00,44.0,41.9,30.09,South,169,1.0,-999.0,92,0.00,,,0.00,0,WeatherHawk,2014-02-02 05:25:00,
2014-02-02 00:30:00,43.7,41.5,30.07,SW,223,0.0,-999.0,92,0.00,,,0.00,0,WeatherHawk,2014-02-02 05:30:00,
2014-02-02 00:35:00,43.9,41.7,30.08,WSW,238,0.0,-999.0,92,0.00,,,0.00,0,WeatherHawk,2014-02-02 05:35:00,
2014-02-02 00:40:00,43.9,41.4,30.07,WSW,240,0.0,-999.0,91,0.00,,,0.00,0,WeatherHawk,2014-02-02 05:40:00,
2014-02-02 00:45:00,43.7,41.3,30.07,SSW,209,0.0,-999.0,91,0.00,,,0.00,0,WeatherHawk,2014-02-02 05:45:00,
2014-02-02 00:50:00,43.4,40.9,30.07,SW,215,0.0,-999.0,91,0.00,,,0.00,0,WeatherHawk,2014-02-02 05:50:00,
2014-02-02 00:55:00,43.4,40.9,30.07,SSW,212,1.0,-999.0,91,0.00,,,0.00,0,WeatherHawk,2014-02-02 05:55:00,
2014-02-02 01:00:00,43.3,40.9,30.07,WSW,256,0.0,-999.0,91,0.00,,,0.00,0,WeatherHawk,2014-02-02 06:00:00,
2014-02-02 01:05:00,43.3,40.8,30.06,SW,222,0.0,-999.0,91,0.04,,,0.04,0,WeatherHawk,2014-02-02 06:05:00,
2014-02-02 01:10:00,42.7,40.3,30.07,SW,218,0.0,-999.0,91,0.04,,,0.04,0,WeatherHawk,2014-02-02 06:10:00,
2014-02-02 01:15:00,43.1,40.9,30.06,South,190,0.0,-999.0,92,0.04,,,0.04,0,WeatherHawk,2014-02-02 06:15:00,
2014-02-02 01:20:00,42.6,40.5,30.06,SSW,204,0.0,-999.0,92,0.04,,,0.04,0,WeatherHawk,2014-02-02 06:20:00,
2014-02-02 01:25:00,42.9,41.0,30.05,SSW,204,0.0,-999.0,93,0.04,,,0.04,0,WeatherHawk,2014-02-02 06:25:00,
2014-02-02 01:30:00,42.4,40.3,30.06,SW,223,0.0,-999.0,92,0.04,,,0.04,0,WeatherHawk,2014-02-02 06:30:00,
2014-02-02 01:35:00,42.5,40.6,30.05,South,183,0.0,-999.0,93,0.04,,,0.04,0,WeatherHawk,2014-02-02 06:35:00,
2014-02-02 01:40:00,41.6,39.7,30.06,SSW,202,0.0,-999.0,93,0.04,,,0.04,0,WeatherHawk,2014-02-02 06:40:00,
2014-02-02 01:45:00,42.6,41.0,30.06,SSW,203,2.0,-999.0,94,0.04,,,0.04,0,WeatherHawk,2014-02-02 06:45:00,
2014-02-02 01:50:00,42.3,40.7,30.06,SSW,207,0.0,-999.0,94,0.04,,,0.04,0,WeatherHawk,2014-02-02 06:50:00,
2014-02-02 01:55:00,42.3,40.7,30.06,SSW,203,0.0,-999.0,94,0.04,,,0.04,0,WeatherHawk,2014-02-02 06:55:00,
2014-02-02 02:00:00,42.4,40.8,30.05,WSW,242,0.0,-999.0,94,0.04,,,0.04,1,WeatherHawk,2014-02-02 07:00:00,
2014-02-02 02:05:00,42.3,40.7,30.05,SSW,201,0.0,-999.0,94,0.00,,,0.04,0,WeatherHawk,2014-02-02 07:05:00,
2014-02-02 02:10:00,42.2,40.4,30.05,WSW,241,0.0,-999.0,93,0.00,,,0.04,0,WeatherHawk,2014-02-02 07:10:00,
2014-02-02 02:15:00,42.3,40.1,30.05,West,265,0.0,-999.0,92,0.00,,,0.04,0,WeatherHawk,2014-02-02 07:15:00,
2014-02-02 02:20:00,42.0,39.9,30.05,SW,225,0.0,-999.0,92,0.00,,,0.04,0,WeatherHawk,2014-02-02 07:20:00,
2014-02-02 02:25:00,42.0,39.9,30.05,WSW,237,0.0,-999.0,92,0.00,,,0.04,0,WeatherHawk,2014-02-02 07:25:00,
2014-02-02 02:30:00,42.0,40.2,30.04,WSW,238,0.0,-999.0,93,0.00,,,0.04,0,WeatherHawk,2014-02-02 07:30:00,
2014-02-02 02:35:00,41.7,39.8,30.05,West,267,0.0,-999.0,93,0.00,,,0.04,0,WeatherHawk,2014-02-02 07:35:00,
2014-02-02 02:40:00,41.5,39.3,30.04,SW,218,0.0,-999.0,92,0.00,,,0.04,0,WeatherHawk,2014-02-02 07:40:00,
2014-02-02 02:45:00,41.1,38.9,30.04,South,180,0.0,-999.0,92,0.00,,,0.04,0,WeatherHawk,2014-02-02 07:45:00,
2014-02-02 02:50:00,41.2,39.3,30.04,SSW,194,0.0,-999.0,93,0.00,,,0.04,0,WeatherHawk,2014-02-02 07:50:00,
2014-02-02 02:55:00,41.2,39.4,30.04,WSW,237,0.0,-999.0,93,0.00,,,0.04,0,WeatherHawk,2014-02-02 07:55:00,
2014-02-02 03:00:00,41.0,39.1,30.04,SSW,207,0.0,-999.0,93,0.00,,,0.04,0,WeatherHawk,2014-02-02 08:00:00,
2014-02-02 03:05:00,40.7,38.9,30.05,SSW,203,0.0,-999.0,93,0.00,,,0.04,0,WeatherHawk,2014-02-02 08:05:00,
2014-02-02 03:10:00,40.7,39.2,30.04,SW,219,0.0,-999.0,94,0.00,,,0.04,0,WeatherHawk,2014-02-02 08:10:00,
2014-02-02 03:15:00,41.0,39.4,30.05,WSW,242,1.0,-999.0,94,0.00,,,0.04,0,WeatherHawk,2014-02-02 08:15:00,
2014-02-02 03:20:00,41.1,39.5,30.04,WSW,246,0.0,-999.0,94,0.00,,,0.04,0,WeatherHawk,2014-02-02 08:20:00,
2014-02-02 03:25:00,40.9,39.0,30.04,WSW,254,0.0,-999.0,93,0.00,,,0.04,0,WeatherHawk,2014-02-02 08:25:00,
2014-02-02 03:30:00,40.8,39.0,30.04,SW,226,0.0,-999.0,93,0.00,,,0.04,0,WeatherHawk,2014-02-02 08:30:00,
2014-02-02 03:35:00,40.3,38.4,30.04,SW,226,0.0,-999.0,93,0.00,,,0.04,0,WeatherHawk,2014-02-02 08:35:00,
2014-02-02 03:40:00,40.1,38.3,30.04,SW,226,0.0,-999.0,93,0.00,,,0.04,0,WeatherHawk,2014-02-02 08:40:00,
2014-02-02 03:45:00,39.1,37.2,30.04,SW,226,0.0,-999.0,93,0.00,,,0.04,0,WeatherHawk,2014-02-02 08:45:00,
2014-02-02 03:50:00,38.6,37.0,30.04,SW,226,0.0,-999.0,94,0.00,,,0.04,0,WeatherHawk,2014-02-02 08:50:00,
2014-02-02 03:55:00,39.0,37.9,30.05,SSW,212,0.0,-999.0,96,0.00,,,0.04,0,WeatherHawk,2014-02-02 08:55:00,
2014-02-02 04:00:00,39.0,38.2,30.05,SSW,212,0.0,-999.0,97,0.00,,,0.04,0,WeatherHawk,2014-02-02 09:00:00,
2014-02-02 04:05:00,38.9,38.1,30.05,SSW,212,0.0,-999.0,97,0.00,,,0.04,0,WeatherHawk,2014-02-02 09:05:00,
2014-02-02 04:10:00,37.7,36.9,30.05,SSW,212,0.0,-999.0,97,0.00,,,0.04,1,WeatherHawk,2014-02-02 09:10:00,
2014-02-02 04:15:00,37.9,37.1,30.04,SSW,212,0.0,-999.0,97,0.00,,,0.04,0,WeatherHawk,2014-02-02 09:15:00,
2014-02-02 04:20:00,37.2,36.7,30.05,SSW,212,0.0,-999.0,98,0.00,,,0.04,0,WeatherHawk,2014-02-02 09:20:00,
2014-02-02 04:25:00,37.2,37.0,30.06,SSW,212,0.0,-999.0,99,0.00,,,0.04,0,WeatherHawk,2014-02-02 09:25:00,
2014-02-02 04:30:00,36.2,35.7,30.05,SSW,212,0.0,-999.0,98,0.00,,,0.04,0,WeatherHawk,2014-02-02 09:30:00,
2014-02-02 04:35:00,35.1,34.6,30.06,SSW,212,0.0,-999.0,98,0.00,,,0.04,0,WeatherHawk,2014-02-02 09:35:00,
2014-02-02 04:40:00,36.8,36.6,30.06,SSW,212,0.0,-999.0,99,0.00,,,0.04,0,WeatherHawk,2014-02-02 09:40:00,
2014-02-02 04:45:00,36.2,35.9,30.05,SSW,212,0.0,-999.0,99,0.00,,,0.04,0,WeatherHawk,2014-02-02 09:45:00,
2014-02-02 04:50:00,35.6,35.3,30.06,SSW,212,0.0,-999.0,99,0.00,,,0.04,0,WeatherHawk,2014-02-02 09:50:00,
2014-02-02 04:55:00,34.9,34.6,30.06,SSW,212,0.0,-999.0,99,0.00,,,0.04,0,WeatherHawk,2014-02-02 09:55:00,
2014-02-02 05:00:00,35.0,34.8,30.06,SSW,212,0.0,-999.0,99,0.00,,,0.04,0,WeatherHawk,2014-02-02 10:00:00,
2014-02-02 05:05:00,35.1,35.1,30.06,SSW,212,0.0,-999.0,100,0.00,,,0.04,0,WeatherHawk,2014-02-02 10:05:00,
2014-02-02 05:10:00,34.9,34.9,30.07,SSW,212,0.0,-999.0,100,0.00,,,0.04,0,WeatherHawk,2014-02-02 10:10:00,
2014-02-02 05:15:00,34.5,34.5,30.07,SW,234,0.0,-999.0,100,0.00,,,0.04,0,WeatherHawk,2014-02-02 10:15:00,
2014-02-02 05:20:00,34.4,34.4,30.07,SW,234,0.0,-999.0,100,0.00,,,0.04,0,WeatherHawk,2014-02-02 10:20:00,
2014-02-02 05:25:00,34.2,34.2,30.07,SW,234,0.0,-999.0,100,0.00,,,0.04,0,WeatherHawk,2014-02-02 10:25:00,
2014-02-02 05:30:00,34.9,34.9,30.08,SW,234,0.0,-999.0,100,0.00,,,0.04,0,WeatherHawk,2014-02-02 10:30:00,
2014-02-02 05:45:00,35.0,35.0,30.08,SW,223,0.0,-999.0,100,0.00,,,0.04,0,WeatherHawk,2014-02-02 10:45:00,
2014-02-02 05:50:00,33.5,33.5,30.08,SW,221,0.0,-999.0,100,0.00,,,0.04,0,WeatherHawk,2014-02-02 10:50:00,
2014-02-02 06:00:00,33.8,33.8,30.10,SW,221,0.0,-999.0,100,0.00,,,0.04,2,WeatherHawk,2014-02-02 11:00:00,
2014-02-02 06:05:00,33.4,33.4,30.09,SW,221,0.0,-999.0,100,0.00,,,0.04,2,WeatherHawk,2014-02-02 11:05:00,
2014-02-02 06:10:00,33.6,33.6,30.09,SW,221,0.0,-999.0,100,0.00,,,0.04,5,WeatherHawk,2014-02-02 11:10:00,
2014-02-02 06:15:00,33.3,33.3,30.09,SW,221,0.0,-999.0,100,0.00,,,0.04,12,WeatherHawk,2014-02-02 11:15:00,
2014-02-02 06:20:00,33.1,33.1,30.10,SW,221,0.0,-999.0,100,0.00,,,0.04,18,WeatherHawk,2014-02-02 11:20:00,
2014-02-02 06:25:00,32.8,32.8,30.09,SW,221,0.0,-999.0,100,0.00,,,0.04,29,WeatherHawk,2014-02-02 11:25:00,
2014-02-02 06:35:00,33.8,33.8,30.07,SW,234,0.0,-999.0,100,0.00,,,0.04,1,WeatherHawk,2014-02-02 11:35:00,
2014-02-02 06:40:00,33.6,33.6,30.08,SW,223,0.0,-999.0,100,0.00,,,0.04,0,WeatherHawk,2014-02-02 11:40:00,
2014-02-02 06:45:00,35.9,35.9,30.10,SSW,207,0.0,-999.0,100,0.00,,,0.04,73,WeatherHawk,2014-02-02 11:45:00,
2014-02-02 06:55:00,35.5,35.5,30.08,SW,221,0.0,-999.0,100,0.00,,,0.04,0,WeatherHawk,2014-02-02 11:55:00,
2014-02-02 07:00:00,36.9,36.9,30.10,SSW,208,0.0,-999.0,100,0.00,,,0.04,149,WeatherHawk,2014-02-02 12:00:00,
2014-02-02 07:05:00,36.7,36.7,30.09,SSW,208,0.0,-999.0,100,0.00,,,0.04,130,WeatherHawk,2014-02-02 12:05:00,
2014-02-02 07:10:00,37.1,37.1,30.10,SSW,208,0.0,-999.0,100,0.00,,,0.04,133,WeatherHawk,2014-02-02 12:10:00,
2014-02-02 07:15:00,39.3,39.3,30.09,SSW,208,0.0,-999.0,100,0.00,,,0.04,155,WeatherHawk,2014-02-02 12:15:00,
2014-02-02 07:20:00,35.6,34.9,30.10,SSW,208,0.0,-999.0,97,0.00,,,0.04,111,WeatherHawk,2014-02-02 12:20:00,
2014-02-02 07:30:00,33.6,33.6,30.09,SW,221,0.0,-999.0,100,0.00,,,0.04,56,WeatherHawk,2014-02-02 12:30:00,
2014-02-02 07:35:00,40.9,39.1,30.10,West,263,0.0,-999.0,93,0.00,,,0.04,185,WeatherHawk,2014-02-02 12:35:00,
2014-02-02 07:40:00,41.4,37.3,30.10,West,263,0.0,-999.0,85,0.00,,,0.04,230,WeatherHawk,2014-02-02 12:40:00,
2014-02-02 07:45:00,41.9,35.2,30.10,SW,232,3.0,-999.0,77,0.00,,,0.04,208,WeatherHawk,2014-02-02 12:45:00,
2014-02-02 07:50:00,35.1,35.1,30.09,SSW,208,0.0,-999.0,100,0.00,,,0.04,83,WeatherHawk,2014-02-02 12:50:00,
2014-02-02 07:55:00,43.3,35.2,30.10,SW,223,0.0,-999.0,73,0.00,,,0.04,201,WeatherHawk,2014-02-02 12:55:00,
2014-02-02 08:05:00,43.0,33.6,30.10,SW,222,2.0,-999.0,69,0.00,,,0.04,277,WeatherHawk,2014-02-02 13:05:00,
2014-02-02 08:10:00,43.2,33.7,30.09,SW,222,2.0,-999.0,69,0.00,,,0.04,271,WeatherHawk,2014-02-02 13:10:00,
2014-02-02 08:15:00,45.1,35.2,30.10,WSW,250,0.0,-999.0,68,0.00,,,0.04,313,WeatherHawk,2014-02-02 13:15:00,
2014-02-02 08:25:00,37.6,36.8,30.09,SSW,208,0.0,-999.0,97,0.00,,,0.04,145,WeatherHawk,2014-02-02 13:25:00,
2014-02-02 08:30:00,44.5,33.1,30.10,South,170,2.0,-999.0,64,0.00,,,0.04,364,WeatherHawk,2014-02-02 13:30:00,
2014-02-02 08:35:00,43.6,31.9,30.09,WSW,250,2.0,-999.0,63,0.00,,,0.04,199,WeatherHawk,2014-02-02 13:35:00,
2014-02-02 08:50:00,43.4,35.7,30.09,SW,232,1.0,-999.0,74,0.00,,,0.04,271,WeatherHawk,2014-02-02 13:50:00,
2014-02-02 09:00:00,44.0,35.2,30.10,SW,215,0.0,-999.0,71,0.00,,,0.04,280,WeatherHawk,2014-02-02 14:00:00,
2014-02-02 09:10:00,47.3,29.6,30.08,WSW,239,2.0,-999.0,50,0.00,,,0.04,438,WeatherHawk,2014-02-02 14:10:00,
2014-02-02 09:20:00,43.3,31.5,30.10,West,273,0.0,-999.0,63,0.00,,,0.04,324,WeatherHawk,2014-02-02 14:20:00,
2014-02-02 09:30:00,48.8,27.3,30.08,SW,223,5.0,-999.0,43,0.00,,,0.04,416,WeatherHawk,2014-02-02 14:30:00,
2014-02-02 09:40:00,43.3,31.2,30.09,NW,307,4.0,-999.0,62,0.00,,,0.04,360,WeatherHawk,2014-02-02 14:40:00,
2014-02-02 09:45:00,45.3,33.1,30.08,WNW,289,0.0,-999.0,62,0.00,,,0.04,339,WeatherHawk,2014-02-02 14:45:00,
2014-02-02 09:55:00,47.4,33.4,30.09,SSW,210,0.0,-999.0,58,0.00,,,0.04,383,WeatherHawk,2014-02-02 14:55:00,
2014-02-02 10:05:00,47.8,31.6,30.08,WSW,244,0.0,-999.0,53,0.00,,,0.04,426,WeatherHawk,2014-02-02 15:05:00,
2014-02-02 10:15:00,47.2,28.5,30.08,NNW,327,3.0,-999.0,48,0.00,,,0.04,414,WeatherHawk,2014-02-02 15:15:00,
2014-02-02 10:20:00,51.3,21.7,30.09,North,350,5.0,-999.0,31,0.00,,,0.04,551,WeatherHawk,2014-02-02 15:20:00,
2014-02-02 10:25:00,47.7,27.9,30.08,South,179,3.0,-999.0,46,0.00,,,0.04,391,WeatherHawk,2014-02-02 15:25:00,
2014-02-02 10:30:00,51.5,18.6,30.09,North,5,6.0,-999.0,27,0.00,,,0.04,425,WeatherHawk,2014-02-02 15:30:00,
2014-02-02 10:35:00,48.4,27.5,30.08,NW,317,2.0,-999.0,44,0.00,,,0.04,402,WeatherHawk,2014-02-02 15:35:00,
2014-02-02 10:40:00,49.5,26.8,30.08,West,265,1.0,-999.0,41,0.00,,,0.04,412,WeatherHawk,2014-02-02 15:40:00,
2014-02-02 10:50:00,49.4,24.2,30.09,NW,318,3.0,-999.0,37,0.00,,,0.04,518,WeatherHawk,2014-02-02 15:50:00,
2014-02-02 10:55:00,50.3,25.1,30.09,NW,320,0.0,-999.0,37,0.00,,,0.04,466,WeatherHawk,2014-02-02 15:55:00,
2014-02-02 11:00:00,50.4,23.8,30.09,NW,323,1.0,-999.0,35,0.00,,,0.04,505,WeatherHawk,2014-02-02 16:00:00,
2014-02-02 11:05:00,51.4,22.5,30.10,WNW,291,3.0,-999.0,32,0.00,,,0.04,475,WeatherHawk,2014-02-02 16:05:00,
2014-02-02 11:10:00,49.8,20.4,30.09,NW,307,5.0,-999.0,31,0.00,,,0.04,481,WeatherHawk,2014-02-02 16:10:00,
2014-02-02 11:15:00,50.4,20.9,30.09,NW,313,3.0,-999.0,31,0.00,,,0.04,480,WeatherHawk,2014-02-02 16:15:00,
2014-02-02 11:25:00,50.9,18.1,30.08,NNW,341,7.0,-999.0,27,0.00,,,0.04,529,WeatherHawk,2014-02-02 16:25:00,
2014-02-02 11:35:00,51.1,20.0,30.09,NNW,337,4.0,-999.0,29,0.00,,,0.04,448,WeatherHawk,2014-02-02 16:35:00,
2014-02-02 11:40:00,50.8,18.9,30.09,North,350,7.0,-999.0,28,0.00,,,0.04,405,WeatherHawk,2014-02-02 16:40:00,
2014-02-02 11:45:00,50.9,18.2,30.08,West,281,2.0,-999.0,27,0.00,,,0.04,322,WeatherHawk,2014-02-02 16:45:00,
2014-02-02 11:50:00,52.0,20.7,30.07,NW,315,3.0,-999.0,29,0.00,,,0.04,594,WeatherHawk,2014-02-02 16:50:00,
2014-02-02 11:55:00,52.5,19.5,30.08,WNW,303,2.0,-999.0,27,0.00,,,0.04,621,WeatherHawk,2014-02-02 16:55:00,
2014-02-02 12:05:00,53.0,17.2,30.07,WSW,240,2.0,-999.0,24,0.00,,,0.04,405,WeatherHawk,2014-02-02 17:05:00,
2014-02-02 12:10:00,53.1,17.2,30.07,West,281,5.0,-999.0,24,0.00,,,0.04,444,WeatherHawk,2014-02-02 17:10:00,
2014-02-02 12:15:00,53.1,18.2,30.06,NNW,334,6.0,-999.0,25,0.00,,,0.04,595,WeatherHawk,2014-02-02 17:15:00,
2014-02-02 12:20:00,54.3,21.1,30.06,NW,311,2.0,-999.0,27,0.00,,,0.04,573,WeatherHawk,2014-02-02 17:20:00,
2014-02-02 12:25:00,53.3,19.3,30.06,NNW,336,4.0,-999.0,26,0.00,,,0.04,562,WeatherHawk,2014-02-02 17:25:00,
2014-02-02 12:30:00,55.2,20.0,30.05,NNW,343,0.0,-999.0,25,0.00,,,0.04,445,WeatherHawk,2014-02-02 17:30:00,
2014-02-02 12:40:00,54.0,15.0,30.05,West,271,4.0,-999.0,21,0.00,,,0.04,500,WeatherHawk,2014-02-02 17:40:00,
2014-02-02 12:45:00,54.0,17.0,30.05,North,0,2.0,-999.0,23,0.00,,,0.04,402,WeatherHawk,2014-02-02 17:45:00,
2014-02-02 12:50:00,54.2,18.2,30.06,WNW,289,3.0,-999.0,24,0.00,,,0.04,314,WeatherHawk,2014-02-02 17:50:00,
2014-02-02 12:55:00,54.5,17.5,30.05,North,351,3.0,-999.0,23,0.00,,,0.04,362,WeatherHawk,2014-02-02 17:55:00,
2014-02-02 13:00:00,55.6,18.4,30.05,NW,309,2.0,-999.0,23,0.00,,,0.04,394,WeatherHawk,2014-02-02 18:00:00,
2014-02-02 13:05:00,55.4,16.2,30.05,NW,326,1.0,-999.0,21,0.00,,,0.04,358,WeatherHawk,2014-02-02 18:05:00,
2014-02-02 13:10:00,54.7,15.6,30.05,NW,318,4.0,-999.0,21,0.00,,,0.04,329,WeatherHawk,2014-02-02 18:10:00,
2014-02-02 13:15:00,54.9,16.8,30.05,NNW,337,4.0,-999.0,22,0.00,,,0.04,286,WeatherHawk,2014-02-02 18:15:00,
2014-02-02 13:20:00,55.1,14.7,30.05,NW,326,4.0,-999.0,20,0.00,,,0.04,353,WeatherHawk,2014-02-02 18:20:00,
2014-02-02 13:25:00,55.6,14.0,30.04,WNW,290,1.0,-999.0,19,0.00,,,0.04,367,WeatherHawk,2014-02-02 18:25:00,
2014-02-02 13:30:00,54.7,8.0,30.03,NNW,347,0.0,-999.0,15,0.00,,,0.04,343,WeatherHawk,2014-02-02 18:30:00,
2014-02-02 13:35:00,55.9,13.1,30.04,NNW,331,0.0,-999.0,18,0.00,,,0.04,414,WeatherHawk,2014-02-02 18:35:00,
2014-02-02 13:40:00,56.7,13.7,30.04,SW,228,0.0,-999.0,18,0.00,,,0.04,459,WeatherHawk,2014-02-02 18:40:00,
2014-02-02 13:45:00,55.3,9.9,30.05,North,351,3.0,-999.0,16,0.00,,,0.04,400,WeatherHawk,2014-02-02 18:45:00,
2014-02-02 13:50:00,56.4,10.8,30.04,WNW,286,2.0,-999.0,16,0.00,,,0.04,430,WeatherHawk,2014-02-02 18:50:00,
2014-02-02 13:55:00,56.5,12.2,30.04,NNE,26,3.0,-999.0,17,0.00,,,0.04,297,WeatherHawk,2014-02-02 18:55:00,
2014-02-02 14:00:00,56.7,13.7,30.05,NW,309,0.0,-999.0,18,0.00,,,0.04,284,WeatherHawk,2014-02-02 19:00:00,
2014-02-02 14:05:00,57.5,11.6,30.04,West,261,2.0,-999.0,16,0.00,,,0.04,414,WeatherHawk,2014-02-02 19:05:00,
2014-02-02 14:10:00,56.3,10.7,30.04,NW,321,3.0,-999.0,16,0.00,,,0.04,274,WeatherHawk,2014-02-02 19:10:00,
2014-02-02 14:20:00,57.4,10.1,30.04,West,273,0.0,-999.0,15,0.00,,,0.04,192,WeatherHawk,2014-02-02 19:20:00,
2014-02-02 14:25:00,56.4,9.3,30.03,WNW,283,2.0,-999.0,15,0.00,,,0.04,194,WeatherHawk,2014-02-02 19:25:00,
2014-02-02 14:30:00,56.3,9.3,30.04,NW,305,2.0,-999.0,15,0.00,,,0.04,196,WeatherHawk,2014-02-02 19:30:00,
2014-02-02 14:35:00,57.0,9.8,30.03,ESE,109,0.0,-999.0,15,0.00,,,0.04,187,WeatherHawk,2014-02-02 19:35:00,
2014-02-02 14:40:00,56.5,7.9,30.03,NNW,344,3.0,-999.0,14,0.00,,,0.04,211,WeatherHawk,2014-02-02 19:40:00,
2014-02-02 14:45:00,57.6,7.1,30.03,SSW,211,0.0,-999.0,13,0.00,,,0.04,214,WeatherHawk,2014-02-02 19:45:00,
2014-02-02 14:50:00,57.8,10.4,30.03,WNW,301,0.0,-999.0,15,0.00,,,0.04,213,WeatherHawk,2014-02-02 19:50:00,
2014-02-02 14:55:00,57.3,11.5,30.04,WNW,299,0.0,-999.0,16,0.00,,,0.04,225,WeatherHawk,2014-02-02 19:55:00,
2014-02-02 15:00:00,56.5,7.9,30.03,NNW,336,5.0,-999.0,14,0.00,,,0.04,258,WeatherHawk,2014-02-02 20:00:00,
2014-02-02 15:05:00,58.2,12.2,30.03,WSW,255,0.0,-999.0,16,0.00,,,0.04,308,WeatherHawk,2014-02-02 20:05:00,
2014-02-02 15:10:00,58.2,7.6,30.03,North,350,0.0,-999.0,13,0.00,,,0.04,266,WeatherHawk,2014-02-02 20:10:00,
2014-02-02 15:15:00,57.9,9.0,30.02,SW,217,1.0,-999.0,14,0.00,,,0.04,206,WeatherHawk,2014-02-02 20:15:00,
2014-02-02 15:25:00,57.2,6.8,30.02,NNE,27,0.0,-999.0,13,0.00,,,0.04,197,WeatherHawk,2014-02-02 20:25:00,
2014-02-02 15:30:00,58.8,12.8,30.03,NNE,28,0.0,-999.0,16,0.00,,,0.04,257,WeatherHawk,2014-02-02 20:30:00,
2014-02-02 15:35:00,59.0,9.9,30.02,SSE,158,0.0,-999.0,14,0.00,,,0.04,168,WeatherHawk,2014-02-02 20:35:00,
2014-02-02 15:45:00,57.8,10.5,30.01,South,175,1.0,-999.0,15,0.00,,,0.04,222,WeatherHawk,2014-02-02 20:45:00,
2014-02-02 15:50:00,58.5,11.1,30.02,South,179,0.0,-999.0,15,0.00,,,0.04,239,WeatherHawk,2014-02-02 20:50:00,
2014-02-02 15:55:00,58.5,12.5,30.02,SW,221,0.0,-999.0,16,0.00,,,0.04,209,WeatherHawk,2014-02-02 20:55:00,
2014-02-02 16:00:00,58.0,7.5,30.01,South,191,2.0,-999.0,13,0.00,,,0.04,200,WeatherHawk,2014-02-02 21:00:00,
2014-02-02 16:05:00,57.8,8.9,30.02,SSW,203,0.0,-999.0,14,0.00,,,0.04,145,WeatherHawk,2014-02-02 21:05:00,
2014-02-02 16:15:00,58.7,9.6,30.02,SSW,203,0.0,-999.0,14,0.00,,,0.04,140,WeatherHawk,2014-02-02 21:15:00,
2014-02-02 16:20:00,58.1,9.1,30.02,SSW,203,0.0,-999.0,14,0.00,,,0.04,95,WeatherHawk,2014-02-02 21:20:00,
2014-02-02 16:25:00,57.1,11.4,30.02,SSW,203,0.0,-999.0,16,0.00,,,0.04,54,WeatherHawk,2014-02-02 21:25:00,
2014-02-02 16:30:00,57.3,12.9,30.02,SSW,203,0.0,-999.0,17,0.00,,,0.04,53,WeatherHawk,2014-02-02 21:30:00,
2014-02-02 16:35:00,57.4,12.9,30.03,SSW,203,0.0,-999.0,17,0.00,,,0.04,48,WeatherHawk,2014-02-02 21:35:00,
2014-02-02 16:40:00,55.0,16.8,30.03,SSW,203,0.0,-999.0,22,0.00,,,0.04,45,WeatherHawk,2014-02-02 21:40:00,
2014-02-02 16:45:00,54.5,17.5,30.04,SSW,203,0.0,-999.0,23,0.00,,,0.04,40,WeatherHawk,2014-02-02 21:45:00,
2014-02-02 16:50:00,54.9,18.8,30.04,SSW,203,0.0,-999.0,24,0.00,,,0.04,31,WeatherHawk,2014-02-02 21:50:00,
2014-02-02 16:55:00,53.7,17.8,30.04,SSW,203,0.0,-999.0,24,0.00,,,0.04,28,WeatherHawk,2014-02-02 21:55:00,
2014-02-02 17:00:00,53.5,21.2,30.05,SSW,203,0.0,-999.0,28,0.00,,,0.04,24,WeatherHawk,2014-02-02 22:00:00,
2014-02-02 17:05:00,51.6,20.4,30.05,SSE,165,1.0,-999.0,29,0.00,,,0.04,16,WeatherHawk,2014-02-02 22:05:00,
2014-02-02 17:10:00,52.2,22.5,30.05,SSE,164,0.0,-999.0,31,0.00,,,0.04,11,WeatherHawk,2014-02-02 22:10:00,
2014-02-02 17:15:00,50.3,22.3,30.06,SSW,196,0.0,-999.0,33,0.00,,,0.04,5,WeatherHawk,2014-02-02 22:15:00,
2014-02-02 17:20:00,51.1,25.1,30.07,SSW,196,0.0,-999.0,36,0.00,,,0.04,2,WeatherHawk,2014-02-02 22:20:00,
2014-02-02 17:25:00,49.2,24.7,30.07,SSW,195,0.0,-999.0,38,0.00,,,0.04,1,WeatherHawk,2014-02-02 22:25:00,
2014-02-02 17:30:00,48.6,24.8,30.07,SSW,195,0.0,-999.0,39,0.00,,,0.04,2,WeatherHawk,2014-02-02 22:30:00,
2014-02-02 17:35:00,48.9,25.6,30.08,South,170,0.0,-999.0,40,0.00,,,0.04,0,WeatherHawk,2014-02-02 22:35:00,
2014-02-02 17:40:00,50.0,27.8,30.07,South,170,0.0,-999.0,42,0.00,,,0.04,0,WeatherHawk,2014-02-02 22:40:00,
2014-02-02 17:45:00,48.5,27.1,30.07,South,170,0.0,-999.0,43,0.00,,,0.04,0,WeatherHawk,2014-02-02 22:45:00,
2014-02-02 17:50:00,48.8,28.4,30.08,South,170,0.0,-999.0,45,0.00,,,0.04,0,WeatherHawk,2014-02-02 22:50:00,
2014-02-02 17:55:00,47.7,27.9,30.08,South,170,0.0,-999.0,46,0.00,,,0.04,0,WeatherHawk,2014-02-02 22:55:00,
2014-02-02 18:00:00,46.4,27.3,30.09,South,170,0.0,-999.0,47,0.00,,,0.04,1,WeatherHawk,2014-02-02 23:00:00,
2014-02-02 18:05:00,46.5,28.4,30.09,South,170,0.0,-999.0,49,0.00,,,0.04,0,WeatherHawk,2014-02-02 23:05:00,
2014-02-02 18:10:00,45.1,27.6,30.09,South,170,0.0,-999.0,50,0.00,,,0.04,1,WeatherHawk,2014-02-02 23:10:00,
2014-02-02 18:15:00,44.1,27.1,30.09,South,170,0.0,-999.0,51,0.00,,,0.04,0,WeatherHawk,2014-02-02 23:15:00,
2014-02-02 18:20:00,44.2,28.6,30.09,South,170,0.0,-999.0,54,0.00,,,0.04,0,WeatherHawk,2014-02-02 23:20:00,
2014-02-02 18:25:00,43.2,28.1,30.10,South,170,0.0,-999.0,55,0.00,,,0.04,0,WeatherHawk,2014-02-02 23:25:00,
2014-02-02 18:30:00,43.3,29.1,30.10,South,170,0.0,-999.0,57,0.00,,,0.04,0,WeatherHawk,2014-02-02 23:30:00,
2014-02-02 18:35:00,42.9,29.2,30.10,South,170,0.0,-999.0,58,0.00,,,0.04,0,WeatherHawk,2014-02-02 23:35:00,
2014-02-02 18:40:00,42.2,28.5,30.11,South,170,0.0,-999.0,58,0.00,,,0.04,0,WeatherHawk,2014-02-02 23:40:00,
2014-02-02 18:45:00,42.2,29.3,30.11,South,170,0.0,-999.0,60,0.00,,,0.04,0,WeatherHawk,2014-02-02 23:45:00,
2014-02-02 18:50:00,41.9,29.9,30.11,South,170,0.0,-999.0,62,0.00,,,0.04,0,WeatherHawk,2014-02-02 23:50:00,
2014-02-02 18:55:00,41.7,29.6,30.11,South,170,0.0,-999.0,62,0.00,,,0.04,0,WeatherHawk,2014-02-02 23:55:00,
2014-02-02 19:00:00,41.9,30.2,30.10,South,170,0.0,-999.0,63,0.00,,,0.04,0,WeatherHawk,2014-02-03 00:00:00,
2014-02-02 19:05:00,41.2,29.5,30.11,South,170,0.0,-999.0,63,0.00,,,0.04,1,WeatherHawk,2014-02-03 00:05:00,
2014-02-02 19:10:00,41.3,30.1,30.10,South,170,0.0,-999.0,64,0.00,,,0.04,0,WeatherHawk,2014-02-03 00:10:00,
2014-02-02 19:15:00,41.1,30.2,30.11,South,170,0.0,-999.0,65,0.00,,,0.04,0,WeatherHawk,2014-02-03 00:15:00,
2014-02-02 19:20:00,41.4,31.3,30.11,South,170,0.0,-999.0,67,0.00,,,0.04,0,WeatherHawk,2014-02-03 00:20:00,
2014-02-02 19:25:00,40.1,29.6,30.11,South,170,0.0,-999.0,66,0.00,,,0.04,0,WeatherHawk,2014-02-03 00:25:00,
2014-02-02 19:30:00,40.6,30.8,30.12,South,170,0.0,-999.0,68,0.00,,,0.04,0,WeatherHawk,2014-02-03 00:30:00,
2014-02-02 19:35:00,40.8,31.1,30.12,South,170,0.0,-999.0,68,0.00,,,0.04,0,WeatherHawk,2014-02-03 00:35:00,
2014-02-02 19:40:00,41.5,31.8,30.12,South,170,0.0,-999.0,68,0.00,,,0.04,0,WeatherHawk,2014-02-03 00:40:00,
2014-02-02 19:45:00,41.4,31.2,30.12,South,170,0.0,-999.0,67,0.00,,,0.04,0,WeatherHawk,2014-02-03 00:45:00,
2014-02-02 19:50:00,41.6,30.7,30.13,NW,311,0.0,-999.0,65,0.00,,,0.04,0,WeatherHawk,2014-02-03 00:50:00,
2014-02-02 20:00:00,42.0,30.7,30.12,NW,311,0.0,-999.0,64,0.00,,,0.04,0,WeatherHawk,2014-02-03 01:00:00,
2014-02-02 20:05:00,41.7,30.0,30.12,NW,311,0.0,-999.0,63,0.00,,,0.04,0,WeatherHawk,2014-02-03 01:05:00,
2014-02-02 20:10:00,41.6,30.0,30.12,NW,311,0.0,-999.0,63,0.00,,,0.04,0,WeatherHawk,2014-02-03 01:10:00,
2014-02-02 20:15:00,41.8,30.2,30.12,NW,311,0.0,-999.0,63,0.00,,,0.04,0,WeatherHawk,2014-02-03 01:15:00,
2014-02-02 20:20:00,41.5,29.4,30.13,NW,311,0.0,-999.0,62,0.00,,,0.04,0,WeatherHawk,2014-02-03 01:20:00,
2014-02-02 20:25:00,41.5,29.4,30.13,NW,311,0.0,-999.0,62,0.00,,,0.04,0,WeatherHawk,2014-02-03 01:25:00,
2014-02-02 20:30:00,41.5,29.1,30.13,NW,311,0.0,-999.0,61,0.00,,,0.04,0,WeatherHawk,2014-02-03 01:30:00,
2014-02-02 20:35:00,41.2,28.4,30.13,NW,311,0.0,-999.0,60,0.00,,,0.04,0,WeatherHawk,2014-02-03 01:35:00,
2014-02-02 20:45:00,43.2,30.6,30.14,NW,311,0.0,-999.0,61,0.00,,,0.04,0,WeatherHawk,2014-02-03 01:45:00,
2014-02-02 20:50:00,42.0,29.2,30.13,NW,311,0.0,-999.0,60,0.00,,,0.04,0,WeatherHawk,2014-02-03 01:50:00,
2014-02-02 20:55:00,41.6,29.2,30.14,NW,311,0.0,-999.0,61,0.00,,,0.04,0,WeatherHawk,2014-02-03 01:55:00,
2014-02-02 21:00:00,41.6,29.2,30.14,NW,311,0.0,-999.0,61,0.00,,,0.04,0,WeatherHawk,2014-02-03 02:00:00,
2014-02-02 21:05:00,42.0,29.5,30.14,NW,310,0.0,-999.0,61,0.00,,,0.04,0,WeatherHawk,2014-02-03 02:05:00,
2014-02-02 21:10:00,42.2,30.2,30.15,NNW,331,0.0,-999.0,62,0.00,,,0.04,0,WeatherHawk,2014-02-03 02:10:00,
2014-02-02 21:15:00,43.4,29.6,30.15,NNW,339,0.0,-999.0,58,0.00,,,0.04,1,WeatherHawk,2014-02-03 02:15:00,
2014-02-02 21:20:00,42.7,28.1,30.15,North,349,0.0,-999.0,56,0.00,,,0.04,0,WeatherHawk,2014-02-03 02:20:00,
2014-02-02 21:25:00,42.9,27.9,30.15,North,350,0.0,-999.0,55,0.00,,,0.04,0,WeatherHawk,2014-02-03 02:25:00,
2014-02-02 21:30:00,42.8,27.8,30.15,North,350,0.0,-999.0,55,0.00,,,0.04,0,WeatherHawk,2014-02-03 02:30:00,
2014-02-02 21:35:00,43.2,28.1,30.15,North,349,0.0,-999.0,55,0.00,,,0.04,0,WeatherHawk,2014-02-03 02:35:00,
2014-02-02 21:40:00,43.7,29.0,30.15,North,350,0.0,-999.0,56,0.00,,,0.04,0,WeatherHawk,2014-02-03 02:40:00,
2014-02-02 21:45:00,42.7,28.1,30.15,North,350,0.0,-999.0,56,0.00,,,0.04,0,WeatherHawk,2014-02-03 02:45:00,
2014-02-02 21:50:00,43.0,28.8,30.15,North,350,0.0,-999.0,57,0.00,,,0.04,0,WeatherHawk,2014-02-03 02:50:00,
2014-02-02 21:55:00,43.5,29.3,30.16,North,350,0.0,-999.0,57,0.00,,,0.04,0,WeatherHawk,2014-02-03 02:55:00,
2014-02-02 22:00:00,42.6,28.4,30.16,North,350,0.0,-999.0,57,0.00,,,0.04,0,WeatherHawk,2014-02-03 03:00:00,
2014-02-02 22:05:00,42.4,29.1,30.16,North,350,0.0,-999.0,59,0.00,,,0.04,0,WeatherHawk,2014-02-03 03:05:00,
2014-02-02 22:10:00,43.8,30.0,30.16,North,350,0.0,-999.0,58,0.00,,,0.04,0,WeatherHawk,2014-02-03 03:10:00,
2014-02-02 22:15:00,42.2,27.6,30.15,North,350,0.0,-999.0,56,0.00,,,0.04,0,WeatherHawk,2014-02-03 03:15:00,
2014-02-02 22:20:00,42.5,27.9,30.16,North,350,0.0,-999.0,56,0.00,,,0.04,0,WeatherHawk,2014-02-03 03:20:00,
2014-02-02 22:25:00,42.4,27.4,30.15,North,350,0.0,-999.0,55,0.00,,,0.04,0,WeatherHawk,2014-02-03 03:25:00,
2014-02-02 22:30:00,42.8,27.8,30.15,North,350,0.0,-999.0,55,0.00,,,0.04,0,WeatherHawk,2014-02-03 03:30:00,
2014-02-02 22:35:00,44.3,27.4,30.15,NNW,341,0.0,-999.0,51,0.00,,,0.04,0,WeatherHawk,2014-02-03 03:35:00,
2014-02-02 22:40:00,45.2,26.7,30.15,NNW,341,0.0,-999.0,48,0.00,,,0.04,0,WeatherHawk,2014-02-03 03:40:00,
2014-02-02 22:45:00,43.0,25.6,30.15,NNW,341,0.0,-999.0,50,0.00,,,0.04,0,WeatherHawk,2014-02-03 03:45:00,
2014-02-02 22:50:00,44.7,26.3,30.15,North,351,0.0,-999.0,48,0.00,,,0.04,1,WeatherHawk,2014-02-03 03:50:00,
2014-02-02 22:55:00,45.6,25.5,30.15,North,3,0.0,-999.0,45,0.00,,,0.04,0,WeatherHawk,2014-02-03 03:55:00,
2014-02-02 23:00:00,46.0,26.9,30.15,North,2,1.0,-999.0,47,0.00,,,0.04,0,WeatherHawk,2014-02-03 04:00:00,
2014-02-02 23:05:00,45.0,24.4,30.15,North,6,0.0,-999.0,44,0.00,,,0.04,0,WeatherHawk,2014-02-03 04:05:00,
2014-02-02 23:10:00,45.7,25.6,30.14,NNE,12,1.0,-999.0,45,0.00,,,0.04,0,WeatherHawk,2014-02-03 04:10:00,
2014-02-02 23:15:00,45.3,25.8,30.13,NNE,24,0.0,-999.0,46,0.00,,,0.04,0,WeatherHawk,2014-02-03 04:15:00,
2014-02-02 23:20:00,46.1,26.0,30.14,NE,43,1.0,-999.0,45,0.00,,,0.04,0,WeatherHawk,2014-02-03 04:20:00,
2014-02-02 23:25:00,46.6,25.8,30.15,NNE,31,5.0,-999.0,44,0.00,,,0.04,0,WeatherHawk,2014-02-03 04:25:00,
2014-02-02 23:30:00,46.4,25.7,30.15,NE,42,3.0,-999.0,44,0.00,,,0.04,0,WeatherHawk,2014-02-03 04:30:00,
2014-02-02 23:35:00,46.1,26.0,30.15,NNE,14,3.0,-999.0,45,0.00,,,0.04,0,WeatherHawk,2014-02-03 04:35:00,
2014-02-02 23:40:00,46.6,26.4,30.15,NE,38,4.0,-999.0,45,0.00,,,0.04,0,WeatherHawk,2014-02-03 04:40:00,
2014-02-02 23:45:00,46.2,26.5,30.16,NNE,25,3.0,-999.0,46,0.00,,,0.04,0,WeatherHawk,2014-02-03 04:45:00,
2014-02-02 23:50:00,45.9,26.9,30.15,North,0,1.0,-999.0,47,0.00,,,0.04,0,WeatherHawk,2014-02-03 04:50:00,
2014-02-02 23:55:00,46.2,27.6,30.16,NW,306,4.0,-999.0,48,0.00,,,0.04,0,WeatherHawk,2014-02-03 04:55:00,